createdAt,value
2018-06-21T00:00:49.488Z,0.00
2018-06-21T00:01:49.728Z,0.00
2018-06-21T00:02:49.966Z,0.00
2018-06-21T00:03:50.209Z,0.00
2018-06-21T00:04:50.444Z,0.00
2018-06-21T00:05:50.674Z,0.00
2018-06-21T00:06:50.916Z,0.00
2018-06-21T00:07:51.165Z,0.00
2018-06-21T00:08:51.415Z,0.00
2018-06-21T00:09:51.651Z,0.00
2018-06-21T00:10:51.920Z,0.00
2018-06-21T00:11:52.133Z,0.00
2018-06-21T00:12:52.405Z,0.00
2018-06-21T00:13:52.666Z,0.00
2018-06-21T00:14:52.878Z,0.00
2018-06-21T00:15:53.122Z,0.00
2018-06-21T00:16:53.365Z,0.00
2018-06-21T00:17:53.600Z,0.00
2018-06-21T00:18:53.840Z,0.00
2018-06-21T00:19:54.102Z,0.00
2018-06-21T00:20:54.304Z,0.00
2018-06-21T00:21:54.549Z,0.00
2018-06-21T00:22:54.797Z,0.00
2018-06-21T00:23:55.033Z,0.00
2018-06-21T00:24:55.262Z,0.00
2018-06-21T00:25:55.504Z,0.00
2018-06-21T00:26:55.741Z,0.00
2018-06-21T00:27:55.982Z,0.00
2018-06-21T00:28:56.226Z,0.00
2018-06-21T00:29:56.461Z,0.00
2018-06-21T00:30:56.708Z,0.00
2018-06-21T00:31:56.929Z,0.00
2018-06-21T00:32:57.157Z,0.00
2018-06-21T00:33:57.411Z,0.00
2018-06-21T00:34:57.654Z,0.00
2018-06-21T00:35:57.903Z,0.00
2018-06-21T00:36:58.147Z,0.00
2018-06-21T00:37:58.364Z,0.00
2018-06-21T00:38:58.604Z,0.00
2018-06-21T00:39:58.848Z,0.00
2018-06-21T00:40:59.082Z,0.00
2018-06-21T00:41:59.331Z,0.00
2018-06-21T00:42:59.570Z,0.00
2018-06-21T00:43:59.804Z,0.00
2018-06-21T00:45:00.045Z,0.00
2018-06-21T00:46:00.283Z,0.00
2018-06-21T00:47:00.522Z,0.00
2018-06-21T00:48:00.777Z,0.00
2018-06-21T00:49:01.028Z,0.00
2018-06-21T00:50:01.255Z,0.00
2018-06-21T00:51:01.489Z,0.00
2018-06-21T00:52:01.738Z,0.00
2018-06-21T00:53:01.969Z,0.00
2018-06-21T00:54:02.198Z,0.00
2018-06-21T00:55:02.441Z,0.00
2018-06-21T00:56:02.684Z,0.00
2018-06-21T00:57:02.925Z,0.00
2018-06-21T00:58:03.171Z,0.00
2018-06-21T00:59:03.392Z,0.00
2018-06-21T01:00:03.641Z,0.00
2018-06-21T01:01:03.863Z,0.00
2018-06-21T01:02:04.113Z,0.00
2018-06-21T01:03:04.339Z,0.00
2018-06-21T01:04:04.589Z,0.00
2018-06-21T01:05:04.830Z,0.00
2018-06-21T01:06:05.072Z,0.00
2018-06-21T01:07:05.298Z,0.00
2018-06-21T01:08:05.540Z,0.00
2018-06-21T01:09:05.786Z,0.00
2018-06-21T01:10:06.020Z,0.00
2018-06-21T01:11:06.273Z,0.00
2018-06-21T01:12:06.497Z,0.00
2018-06-21T01:13:06.736Z,0.00
2018-06-21T01:14:06.975Z,0.00
2018-06-21T01:15:07.207Z,0.00
2018-06-21T01:16:07.439Z,0.00
2018-06-21T01:17:07.664Z,0.00
2018-06-21T01:18:07.918Z,0.00
2018-06-21T01:19:08.168Z,0.00
2018-06-21T01:20:08.400Z,0.00
2018-06-21T01:21:08.640Z,0.00
2018-06-21T01:22:08.880Z,0.00
2018-06-21T01:23:09.120Z,0.00
2018-06-21T01:24:09.363Z,0.00
2018-06-21T01:25:09.603Z,0.00
2018-06-21T01:26:09.842Z,0.00
2018-06-21T01:27:10.080Z,0.00
2018-06-21T01:28:10.317Z,0.00
2018-06-21T01:29:10.547Z,0.00
2018-06-21T01:30:10.796Z,0.00
2018-06-21T01:31:11.031Z,0.00
2018-06-21T01:32:11.266Z,0.00
2018-06-21T01:33:11.510Z,0.00
2018-06-21T01:34:11.740Z,0.00
2018-06-21T01:35:11.984Z,0.00
2018-06-21T01:36:12.216Z,0.00
2018-06-21T01:37:12.457Z,0.00
2018-06-21T01:38:12.687Z,0.00
2018-06-21T01:39:12.940Z,0.00
2018-06-21T01:40:13.158Z,0.00
2018-06-21T01:41:13.394Z,0.00
2018-06-21T01:42:13.635Z,0.00
2018-06-21T01:43:13.879Z,0.00
2018-06-21T01:44:14.103Z,0.00
2018-06-21T01:45:14.352Z,0.00
2018-06-21T01:46:14.567Z,0.00
2018-06-21T01:47:14.805Z,0.00
2018-06-21T01:48:15.044Z,0.00
2018-06-21T01:49:15.282Z,0.00
2018-06-21T01:50:15.520Z,0.00
2018-06-21T01:51:15.759Z,0.00
2018-06-21T01:52:15.983Z,0.00
2018-06-21T01:53:16.221Z,0.00
2018-06-21T01:54:16.453Z,0.00
2018-06-21T01:55:16.701Z,0.00
2018-06-21T01:56:16.950Z,0.00
2018-06-21T01:57:17.182Z,0.00
2018-06-21T01:58:17.405Z,0.00
2018-06-21T01:59:17.641Z,0.00
2018-06-21T02:00:17.879Z,0.00
2018-06-21T02:01:18.138Z,0.00
2018-06-21T02:02:18.349Z,0.00
2018-06-21T02:03:18.586Z,0.00
2018-06-21T02:04:18.824Z,0.00
2018-06-21T02:05:19.052Z,0.00
2018-06-21T02:06:19.299Z,0.00
2018-06-21T02:07:19.538Z,0.00
2018-06-21T02:08:19.763Z,0.00
2018-06-21T02:09:19.992Z,0.00
2018-06-21T02:10:20.228Z,0.00
2018-06-21T02:11:20.468Z,0.00
2018-06-21T02:12:20.713Z,0.00
2018-06-21T02:13:20.924Z,0.00
2018-06-21T02:14:21.158Z,0.00
2018-06-21T02:15:21.392Z,0.00
2018-06-21T02:16:21.638Z,0.00
2018-06-21T02:17:21.883Z,0.00
2018-06-21T02:18:22.108Z,0.00
2018-06-21T02:19:22.357Z,0.00
2018-06-21T02:20:22.597Z,0.00
2018-06-21T02:21:22.827Z,0.00
2018-06-21T02:22:23.080Z,0.00
2018-06-21T02:23:23.307Z,4.00
2018-06-21T02:24:23.553Z,4.00
2018-06-21T02:25:23.777Z,4.00
2018-06-21T02:26:24.015Z,0.00
2018-06-21T02:27:24.277Z,4.00
2018-06-21T02:28:24.517Z,4.00
2018-06-21T02:29:24.759Z,4.00
2018-06-21T02:30:25.002Z,4.00
2018-06-21T02:31:25.248Z,8.00
2018-06-21T02:32:25.463Z,4.00
2018-06-21T02:33:25.699Z,8.00
2018-06-21T02:34:26.003Z,8.00
2018-06-21T02:35:26.165Z,8.00
2018-06-21T02:36:26.397Z,12.00
2018-06-21T02:37:26.646Z,12.00
2018-06-21T02:38:26.871Z,12.00
2018-06-21T02:39:27.131Z,16.00
2018-06-21T02:40:27.349Z,16.00
2018-06-21T02:41:27.575Z,20.00
2018-06-21T02:42:27.817Z,20.00
2018-06-21T02:43:28.051Z,24.00
2018-06-21T02:44:28.292Z,28.00
2018-06-21T02:45:28.523Z,28.00
2018-06-21T02:46:28.788Z,32.00
2018-06-21T02:47:28.992Z,36.00
2018-06-21T02:48:29.211Z,40.00
2018-06-21T02:49:29.454Z,40.00
2018-06-21T02:50:29.677Z,48.00
2018-06-21T02:51:29.935Z,48.00
2018-06-21T02:52:30.150Z,56.00
2018-06-21T02:53:30.400Z,60.00
2018-06-21T02:54:30.637Z,68.00
2018-06-21T02:55:30.869Z,72.00
2018-06-21T02:56:31.109Z,80.00
2018-06-21T02:57:31.355Z,92.00
2018-06-21T02:58:31.584Z,104.00
2018-06-21T02:59:31.832Z,116.00
2018-06-21T03:00:32.041Z,132.00
2018-06-21T03:01:32.276Z,144.00
2018-06-21T03:02:32.515Z,160.00
2018-06-21T03:03:32.745Z,176.00
2018-06-21T03:04:32.968Z,196.00
2018-06-21T03:05:33.211Z,220.00
2018-06-21T03:06:33.457Z,248.00
2018-06-21T03:07:33.687Z,272.00
2018-06-21T03:08:33.936Z,300.00
2018-06-21T03:09:34.177Z,328.00
2018-06-21T03:10:34.407Z,360.00
2018-06-21T03:11:34.650Z,396.00
2018-06-21T03:12:34.884Z,428.00
2018-06-21T03:13:35.129Z,456.00
2018-06-21T03:14:35.366Z,488.00
2018-06-21T03:15:35.609Z,520.00
2018-06-21T03:16:35.845Z,548.00
2018-06-21T03:17:36.093Z,580.00
2018-06-21T03:18:36.335Z,608.00
2018-06-21T03:19:36.581Z,636.00
2018-06-21T03:20:36.838Z,672.00
2018-06-21T03:21:37.039Z,708.00
2018-06-21T03:22:37.281Z,752.00
2018-06-21T03:23:37.525Z,788.00
2018-06-21T03:24:37.767Z,828.00
2018-06-21T03:25:38.011Z,872.00
2018-06-21T03:26:38.252Z,916.00
2018-06-21T03:27:38.509Z,968.00
2018-06-21T03:28:38.731Z,1020.00
2018-06-21T03:29:38.988Z,1076.00
2018-06-21T03:30:39.208Z,1128.00
2018-06-21T03:31:39.444Z,1188.00
2018-06-21T03:32:39.679Z,1240.00
2018-06-21T03:33:39.915Z,1292.00
2018-06-21T03:34:40.160Z,1352.00
2018-06-21T03:35:40.402Z,1408.00
2018-06-21T03:36:40.644Z,1464.00
2018-06-21T03:37:40.886Z,1524.00
2018-06-21T03:38:41.127Z,1584.00
2018-06-21T03:39:41.362Z,1652.00
2018-06-21T03:40:41.604Z,1728.00
2018-06-21T03:41:41.841Z,1804.00
2018-06-21T03:42:42.079Z,1900.00
2018-06-21T03:43:42.321Z,2060.00
2018-06-21T03:44:42.567Z,2156.00
2018-06-21T03:45:42.798Z,2224.00
2018-06-21T03:46:43.038Z,2292.00
2018-06-21T03:47:43.280Z,2364.00
2018-06-21T03:48:43.523Z,2444.00
2018-06-21T03:49:43.764Z,2520.00
2018-06-21T03:50:44.008Z,2612.00
2018-06-21T03:51:44.243Z,2704.00
2018-06-21T03:52:44.477Z,2800.00
2018-06-21T03:53:44.713Z,2892.00
2018-06-21T03:54:44.954Z,2988.00
2018-06-21T03:55:45.184Z,3092.00
2018-06-21T03:56:45.422Z,3204.00
2018-06-21T03:57:45.653Z,3304.00
2018-06-21T03:58:45.897Z,3404.00
2018-06-21T03:59:46.135Z,3500.00
2018-06-21T04:00:46.369Z,3600.00
2018-06-21T04:01:46.608Z,3700.00
2018-06-21T04:02:46.849Z,3796.00
2018-06-21T04:03:47.067Z,3880.00
2018-06-21T04:04:47.329Z,3940.00
2018-06-21T04:05:47.570Z,3928.00
2018-06-21T04:06:47.804Z,3996.00
2018-06-21T04:07:48.043Z,4024.00
2018-06-21T04:08:48.270Z,4032.00
2018-06-21T04:09:48.520Z,4052.00
2018-06-21T04:10:48.896Z,4088.00
2018-06-21T04:11:49.428Z,4128.00
2018-06-21T04:12:49.526Z,4184.00
2018-06-21T04:13:49.754Z,4252.00
2018-06-21T04:14:50.004Z,4316.00
2018-06-21T04:15:50.254Z,4408.00
2018-06-21T04:16:50.476Z,4528.00
2018-06-21T04:17:50.735Z,4688.00
2018-06-21T04:18:50.990Z,4844.00
2018-06-21T04:19:51.217Z,5024.00
2018-06-21T04:20:51.467Z,5200.00
2018-06-21T04:21:51.698Z,5340.00
2018-06-21T04:22:51.952Z,5324.00
2018-06-21T04:23:52.337Z,5320.00
2018-06-21T04:24:52.584Z,5000.00
2018-06-21T04:25:52.825Z,4928.00
2018-06-21T04:26:53.072Z,5292.00
2018-06-21T04:27:53.325Z,5140.00
2018-06-21T04:28:53.547Z,5124.00
2018-06-21T04:29:53.778Z,4692.00
2018-06-21T04:30:54.033Z,4812.00
2018-06-21T04:31:54.277Z,4832.00
2018-06-21T04:32:54.495Z,4536.00
2018-06-21T04:33:54.756Z,4304.00
2018-06-21T04:34:54.973Z,4072.00
2018-06-21T04:35:55.205Z,4768.00
2018-06-21T04:36:55.447Z,4616.00
2018-06-21T04:37:55.741Z,4280.00
2018-06-21T04:38:55.936Z,3792.00
2018-06-21T04:39:56.179Z,4040.00
2018-06-21T04:40:56.412Z,4220.00
2018-06-21T04:41:56.643Z,4944.00
2018-06-21T04:42:56.882Z,5056.00
2018-06-21T04:43:57.122Z,4936.00
2018-06-21T04:44:57.369Z,4752.00
2018-06-21T04:45:57.721Z,4440.00
2018-06-21T04:46:57.853Z,5040.00
2018-06-21T04:47:58.098Z,5092.00
2018-06-21T04:48:58.347Z,5224.00
2018-06-21T04:49:58.578Z,5404.00
2018-06-21T04:50:58.824Z,5468.00
2018-06-21T04:51:59.061Z,5540.00
2018-06-21T04:52:59.310Z,5596.00
2018-06-21T04:53:59.541Z,5652.00
2018-06-21T04:54:59.797Z,5724.00
2018-06-21T04:56:00.032Z,5788.00
2018-06-21T04:57:00.246Z,5840.00
2018-06-21T04:58:00.489Z,5864.00
2018-06-21T04:59:00.740Z,5888.00
2018-06-21T05:00:00.994Z,5896.00
2018-06-21T05:01:01.222Z,5904.00
2018-06-21T05:02:01.451Z,5896.00
2018-06-21T05:03:01.691Z,5908.00
2018-06-21T05:04:01.932Z,5912.00
2018-06-21T05:05:02.181Z,5948.00
2018-06-21T05:06:02.410Z,5992.00
2018-06-21T05:07:02.660Z,6028.00
2018-06-21T05:08:02.888Z,6100.00
2018-06-21T05:09:03.138Z,6160.00
2018-06-21T05:10:03.388Z,6212.00
2018-06-21T05:11:03.626Z,6344.00
2018-06-21T05:12:04.179Z,6620.00
2018-06-21T05:13:04.191Z,6756.00
2018-06-21T05:14:04.445Z,6520.00
2018-06-21T05:15:04.677Z,6320.00
2018-06-21T05:16:04.919Z,6324.00
2018-06-21T05:17:05.145Z,6312.00
2018-06-21T05:18:05.398Z,6292.00
2018-06-21T05:19:05.642Z,6272.00
2018-06-21T05:20:05.885Z,6256.00
2018-06-21T05:21:06.123Z,6264.00
2018-06-21T05:22:06.360Z,6268.00
2018-06-21T05:23:06.600Z,6288.00
2018-06-21T05:24:06.848Z,6292.00
2018-06-21T05:25:07.120Z,6336.00
2018-06-21T05:26:07.335Z,6328.00
2018-06-21T05:27:07.582Z,6420.00
2018-06-21T05:28:07.825Z,6428.00
2018-06-21T05:29:08.067Z,6520.00
2018-06-21T05:30:08.313Z,6556.00
2018-06-21T05:31:08.544Z,6624.00
2018-06-21T05:32:08.780Z,6696.00
2018-06-21T05:33:09.018Z,6792.00
2018-06-21T05:34:09.247Z,6844.00
2018-06-21T05:35:09.493Z,6908.00
2018-06-21T05:36:09.735Z,6988.00
2018-06-21T05:37:09.983Z,7076.00
2018-06-21T05:38:10.226Z,7172.00
2018-06-21T05:39:10.519Z,7232.00
2018-06-21T05:40:10.702Z,7388.00
2018-06-21T05:41:10.951Z,7480.00
2018-06-21T05:42:11.192Z,7620.00
2018-06-21T05:43:11.418Z,7720.00
2018-06-21T05:44:20.317Z,7716.00
2018-06-21T05:45:12.049Z,7740.00
2018-06-21T05:46:12.296Z,7640.00
2018-06-21T05:47:12.539Z,7572.00
2018-06-21T05:48:12.787Z,7496.00
2018-06-21T05:49:13.025Z,7444.00
2018-06-21T05:50:13.330Z,7316.00
2018-06-21T05:51:22.144Z,7208.00
2018-06-21T05:52:13.902Z,7028.00
2018-06-21T05:53:14.146Z,6540.00
2018-06-21T05:54:14.385Z,5540.00
2018-06-21T05:55:14.615Z,5452.00
2018-06-21T05:56:14.859Z,6024.00
2018-06-21T05:57:15.107Z,6516.00
2018-06-21T05:58:15.339Z,7272.00
2018-06-21T05:59:15.582Z,7396.00
2018-06-21T06:00:15.824Z,7524.00
2018-06-21T06:01:16.066Z,7712.00
2018-06-21T06:02:16.302Z,7576.00
2018-06-21T06:03:16.564Z,7896.00
2018-06-21T06:04:16.796Z,8000.00
2018-06-21T06:05:17.013Z,7960.00
2018-06-21T06:06:17.248Z,8028.00
2018-06-21T06:07:17.492Z,7908.00
2018-06-21T06:08:17.755Z,7584.00
2018-06-21T06:09:25.588Z,7824.00
2018-06-21T06:10:18.245Z,8744.00
2018-06-21T06:11:18.499Z,9340.00
2018-06-21T06:12:18.741Z,8712.00
2018-06-21T06:13:18.984Z,9252.00
2018-06-21T06:14:27.881Z,9580.00
2018-06-21T06:15:19.622Z,10116.00
2018-06-21T06:16:27.502Z,10468.00
2018-06-21T06:17:20.177Z,10612.00
2018-06-21T06:18:20.393Z,9320.00
2018-06-21T06:19:20.630Z,10200.00
2018-06-21T06:20:20.884Z,10240.00
2018-06-21T06:21:21.116Z,9252.00
2018-06-21T06:22:21.347Z,9164.00
2018-06-21T06:23:21.610Z,8504.00
2018-06-21T06:24:21.841Z,9244.00
2018-06-21T06:25:22.075Z,8456.00
2018-06-21T06:26:22.331Z,8880.00
2018-06-21T06:27:22.577Z,8920.00
2018-06-21T06:28:22.828Z,10084.00
2018-06-21T06:29:23.069Z,10444.00
2018-06-21T06:30:31.939Z,10596.00
2018-06-21T06:31:23.704Z,11556.00
2018-06-21T06:32:32.670Z,11848.00
2018-06-21T06:33:32.962Z,11628.00
2018-06-21T06:34:33.410Z,11488.00
2018-06-21T06:35:25.157Z,11220.00
2018-06-21T06:36:34.094Z,11140.00
2018-06-21T06:37:34.328Z,11272.00
2018-06-21T06:38:33.814Z,11124.00
2018-06-21T06:39:35.104Z,11296.00
2018-06-21T06:40:34.530Z,11460.00
2018-06-21T06:41:36.777Z,11720.00
2018-06-21T06:42:36.989Z,12008.00
2018-06-21T06:43:36.276Z,12340.00
2018-06-21T06:44:36.551Z,12472.00
2018-06-21T06:45:36.844Z,12180.00
2018-06-21T06:46:28.673Z,11864.00
2018-06-21T06:47:37.609Z,11548.00
2018-06-21T06:48:37.929Z,11908.00
2018-06-21T06:49:38.273Z,12104.00
2018-06-21T06:50:37.630Z,13376.00
2018-06-21T06:51:38.938Z,14016.00
2018-06-21T06:52:38.383Z,14204.00
2018-06-21T06:53:39.611Z,14588.00
2018-06-21T06:54:31.397Z,14444.00
2018-06-21T06:55:31.607Z,14040.00
2018-06-21T06:56:31.850Z,12784.00
2018-06-21T06:57:39.776Z,13456.00
2018-06-21T06:58:41.154Z,14252.00
2018-06-21T06:59:41.489Z,14844.00
2018-06-21T07:00:42.838Z,14812.00
2018-06-21T07:01:41.073Z,14588.00
2018-06-21T07:02:43.531Z,13636.00
2018-06-21T07:05:36.868Z,12920.00
2018-06-21T07:06:08.508Z,12996.00
2018-06-21T07:07:08.608Z,13744.00
2018-06-21T07:08:08.880Z,14324.00
2018-06-21T07:09:16.957Z,14684.00
2018-06-21T07:10:09.364Z,15084.00
2018-06-21T07:11:18.140Z,15560.00
2018-06-21T07:12:19.566Z,14988.00
2018-06-21T07:13:19.885Z,14196.00
2018-06-21T07:14:19.138Z,13632.00
2018-06-21T07:15:20.670Z,13232.00
2018-06-21T07:16:18.724Z,13512.00
2018-06-21T07:17:11.403Z,13984.00
2018-06-21T07:18:11.649Z,14228.00
2018-06-21T07:19:11.891Z,14392.00
2018-06-21T07:20:12.132Z,14480.00
2018-06-21T07:21:12.381Z,14560.00
2018-06-21T07:22:12.632Z,14564.00
2018-06-21T07:23:12.873Z,14308.00
2018-06-21T07:24:13.105Z,14652.00
2018-06-21T07:25:13.345Z,15804.00
2018-06-21T07:26:13.593Z,16832.00
2018-06-21T07:27:13.907Z,16800.00
2018-06-21T07:28:14.088Z,17888.00
2018-06-21T07:29:14.337Z,18752.00
2018-06-21T07:30:14.594Z,18880.00
2018-06-21T07:31:14.834Z,19136.00
2018-06-21T07:32:15.075Z,18400.00
2018-06-21T07:33:15.306Z,18560.00
2018-06-21T07:34:15.541Z,18496.00
2018-06-21T07:35:15.781Z,17728.00
2018-06-21T07:36:16.016Z,18880.00
2018-06-21T07:37:16.265Z,18912.00
2018-06-21T07:38:16.517Z,20256.00
2018-06-21T07:39:16.772Z,20032.00
2018-06-21T07:40:17.030Z,20960.00
2018-06-21T07:41:17.279Z,20864.00
2018-06-21T07:42:17.511Z,21408.00
2018-06-21T07:43:17.763Z,21248.00
2018-06-21T07:44:18.032Z,20160.00
2018-06-21T07:45:18.301Z,20320.00
2018-06-21T07:46:18.534Z,19328.00
2018-06-21T07:47:18.770Z,19072.00
2018-06-21T07:48:19.027Z,18720.00
2018-06-21T07:49:19.266Z,19072.00
2018-06-21T07:50:19.504Z,19328.00
2018-06-21T07:51:19.757Z,19584.00
2018-06-21T07:52:20.005Z,18912.00
2018-06-21T07:53:20.263Z,19744.00
2018-06-21T07:54:20.482Z,18880.00
2018-06-21T07:55:20.734Z,20192.00
2018-06-21T07:56:20.995Z,19616.00
2018-06-21T07:57:21.224Z,18784.00
2018-06-21T07:58:21.482Z,19648.00
2018-06-21T07:59:21.718Z,19328.00
2018-06-21T08:00:21.989Z,19232.00
2018-06-21T08:01:22.235Z,20544.00
2018-06-21T08:02:22.497Z,18912.00
2018-06-21T08:03:22.731Z,18592.00
2018-06-21T08:04:22.978Z,18592.00
2018-06-21T08:05:23.209Z,19680.00
2018-06-21T08:06:23.440Z,20032.00
2018-06-21T08:07:23.709Z,20480.00
2018-06-21T08:08:23.947Z,20896.00
2018-06-21T08:09:24.206Z,20896.00
2018-06-21T08:10:24.433Z,21408.00
2018-06-21T08:11:24.664Z,21280.00
2018-06-21T08:12:24.914Z,21920.00
2018-06-21T08:13:25.174Z,20448.00
2018-06-21T08:14:25.411Z,20608.00
2018-06-21T08:15:25.644Z,20576.00
2018-06-21T08:16:25.889Z,21536.00
2018-06-21T08:17:26.115Z,24448.00
2018-06-21T08:18:26.391Z,26016.00
2018-06-21T08:19:26.637Z,27616.00
2018-06-21T08:20:26.867Z,27136.00
2018-06-21T08:21:27.121Z,25984.00
2018-06-21T08:22:27.357Z,25248.00
2018-06-21T08:23:27.598Z,24288.00
2018-06-21T08:24:27.838Z,25024.00
2018-06-21T08:25:28.125Z,24352.00
2018-06-21T08:26:37.126Z,25216.00
2018-06-21T08:27:38.008Z,24480.00
2018-06-21T08:28:29.156Z,23744.00
2018-06-21T08:29:39.059Z,24736.00
2018-06-21T08:30:39.585Z,24832.00
2018-06-21T08:31:38.862Z,24768.00
2018-06-21T08:32:30.269Z,25792.00
2018-06-21T08:33:39.346Z,26432.00
2018-06-21T08:34:40.789Z,25920.00
2018-06-21T08:35:41.198Z,25600.00
2018-06-21T08:36:31.525Z,25728.00
2018-06-21T08:37:31.758Z,25536.00
2018-06-21T08:38:32.017Z,25568.00
2018-06-21T08:39:41.906Z,26368.00
2018-06-21T08:40:32.561Z,27424.00
2018-06-21T08:41:32.722Z,29024.00
2018-06-21T08:42:42.616Z,32544.00
2018-06-21T08:43:33.264Z,32512.00
2018-06-21T08:44:33.539Z,31328.00
2018-06-21T08:45:42.407Z,28544.00
2018-06-21T08:46:42.835Z,27680.00
2018-06-21T08:47:43.147Z,26432.00
2018-06-21T08:48:34.908Z,26592.00
2018-06-21T08:49:35.102Z,27520.00
2018-06-21T08:50:44.040Z,29728.00
2018-06-21T08:51:44.383Z,28064.00
2018-06-21T08:52:36.249Z,28256.00
2018-06-21T08:53:45.077Z,27136.00
2018-06-21T08:54:45.395Z,24288.00
2018-06-21T08:55:37.137Z,25184.00
2018-06-21T08:56:37.351Z,22688.00
2018-06-21T08:57:37.605Z,22080.00
2018-06-21T08:58:37.839Z,22656.00
2018-06-21T08:59:38.094Z,24608.00
2018-06-21T09:00:38.321Z,24256.00
2018-06-21T09:01:47.258Z,29376.00
2018-06-21T09:02:38.993Z,27552.00
2018-06-21T09:03:39.227Z,20256.00
2018-06-21T09:04:48.116Z,18272.00
2018-06-21T09:05:39.840Z,18976.00
2018-06-21T09:06:40.107Z,18912.00
2018-06-21T09:07:40.376Z,15652.00
2018-06-21T09:08:40.596Z,14180.00
2018-06-21T09:09:48.562Z,13148.00
2018-06-21T09:10:49.800Z,11476.00
2018-06-21T09:11:51.328Z,10540.00
2018-06-21T09:12:50.515Z,10792.00
2018-06-21T09:13:42.215Z,10132.00
2018-06-21T09:14:50.093Z,10276.00
2018-06-21T09:15:42.833Z,10028.00
2018-06-21T09:16:51.663Z,10000.00
2018-06-21T09:17:52.079Z,9832.00
2018-06-21T09:18:43.553Z,8132.00
2018-06-21T09:19:43.855Z,6760.00
2018-06-21T09:20:44.030Z,7348.00
2018-06-21T09:21:52.904Z,7628.00
2018-06-21T09:22:44.675Z,7856.00
2018-06-21T09:23:44.901Z,7648.00
2018-06-21T09:24:45.174Z,7572.00
2018-06-21T09:25:55.050Z,6352.00
2018-06-21T09:26:45.654Z,6512.00
2018-06-21T09:27:54.484Z,10080.00
2018-06-21T09:28:53.927Z,14184.00
2018-06-21T09:29:46.601Z,17312.00
2018-06-21T09:30:54.472Z,17824.00
2018-06-21T09:31:55.756Z,18080.00
2018-06-21T09:32:47.547Z,10372.00
2018-06-21T09:33:47.770Z,9700.00
2018-06-21T09:34:48.023Z,10240.00
2018-06-21T09:35:56.893Z,11536.00
2018-06-21T09:36:48.672Z,12932.00
2018-06-21T09:37:57.505Z,15384.00
2018-06-21T09:38:57.914Z,16896.00
2018-06-21T09:39:58.263Z,17152.00
2018-06-21T09:40:50.045Z,18752.00
2018-06-21T09:41:57.918Z,18688.00
2018-06-21T09:42:59.337Z,16672.00
2018-06-21T09:44:03.829Z,15192.00
2018-06-21T09:44:59.964Z,11988.00
2018-06-21T09:45:51.717Z,10704.00
2018-06-21T09:46:51.970Z,9276.00
2018-06-21T09:48:00.813Z,7760.00
2018-06-21T09:48:52.577Z,7560.00
2018-06-21T09:50:00.620Z,8604.00
2018-06-21T09:51:01.825Z,8780.00
2018-06-21T09:52:02.194Z,6088.00
2018-06-21T09:53:02.623Z,3456.00
2018-06-21T09:54:02.099Z,2536.00
2018-06-21T09:54:54.664Z,2240.00
2018-06-21T09:55:54.906Z,2288.00
2018-06-21T09:56:55.166Z,2336.00
2018-06-21T09:57:55.399Z,2392.00
2018-06-21T09:58:55.662Z,2960.00
2018-06-21T09:59:55.900Z,4456.00
2018-06-21T10:00:56.127Z,7776.00
2018-06-21T10:02:05.032Z,10340.00
2018-06-21T10:03:05.417Z,12836.00
2018-06-21T10:03:56.961Z,12812.00
2018-06-21T10:04:57.208Z,13424.00
2018-06-21T10:05:57.459Z,13344.00
2018-06-21T10:06:57.700Z,14240.00
2018-06-21T10:07:57.950Z,13844.00
2018-06-21T10:08:58.195Z,11708.00
2018-06-21T10:10:07.072Z,10940.00
2018-06-21T10:11:07.502Z,11052.00
2018-06-21T10:12:08.890Z,11256.00
2018-06-21T10:13:08.236Z,11572.00
2018-06-21T10:13:59.884Z,11856.00
2018-06-21T10:15:00.085Z,11964.00
2018-06-21T10:16:09.030Z,12156.00
2018-06-21T10:17:00.613Z,12072.00
2018-06-21T10:18:09.449Z,12688.00
2018-06-21T10:19:08.983Z,13560.00
2018-06-21T10:20:10.111Z,13472.00
2018-06-21T10:21:10.498Z,12272.00
2018-06-21T10:22:10.873Z,11696.00
2018-06-21T10:23:02.672Z,11932.00
2018-06-21T10:24:02.891Z,11912.00
2018-06-21T10:25:11.787Z,13432.00
2018-06-21T10:26:03.604Z,16712.00
2018-06-21T10:27:12.395Z,18144.00
2018-06-21T10:28:12.808Z,17824.00
2018-06-21T10:29:13.194Z,13772.00
2018-06-21T10:30:13.576Z,9192.00
2018-06-21T10:31:13.935Z,5600.00
2018-06-21T10:32:05.714Z,3972.00
2018-06-21T10:33:05.929Z,3372.00
2018-06-21T10:34:06.141Z,3924.00
2018-06-21T10:35:14.034Z,3652.00
2018-06-21T10:36:06.689Z,4636.00
2018-06-21T10:37:06.936Z,6792.00
2018-06-21T10:38:07.186Z,8448.00
2018-06-21T10:39:07.415Z,8144.00
2018-06-21T10:40:07.657Z,7296.00
2018-06-21T10:41:07.901Z,9988.00
2018-06-21T10:42:08.149Z,12440.00
2018-06-21T10:43:16.085Z,13544.00
2018-06-21T10:44:17.528Z,10736.00
2018-06-21T10:45:17.697Z,8076.00
2018-06-21T10:46:18.144Z,8812.00
2018-06-21T10:47:18.204Z,10996.00
2018-06-21T10:48:18.661Z,10280.00
2018-06-21T10:49:19.009Z,8132.00
2018-06-21T10:50:19.408Z,7660.00
2018-06-21T10:51:19.865Z,8008.00
2018-06-21T10:52:19.962Z,8256.00
2018-06-21T10:53:20.447Z,8916.00
2018-06-21T10:54:20.739Z,9844.00
2018-06-21T10:55:21.114Z,10796.00
2018-06-21T10:56:21.524Z,12336.00
2018-06-21T10:57:21.887Z,13512.00
2018-06-21T10:58:22.253Z,14764.00
2018-06-21T10:59:22.722Z,15836.00
2018-06-21T11:00:24.101Z,14928.00
2018-06-21T11:01:23.336Z,14136.00
2018-06-21T11:02:23.715Z,15048.00
2018-06-21T11:03:24.117Z,13948.00
2018-06-21T11:04:24.606Z,13856.00
2018-06-21T11:05:24.853Z,13668.00
2018-06-21T11:06:25.359Z,14208.00
2018-06-21T11:07:26.647Z,14480.00
2018-06-21T11:08:25.940Z,14136.00
2018-06-21T11:09:26.312Z,15584.00
2018-06-21T11:10:26.882Z,17248.00
2018-06-21T11:11:26.961Z,17728.00
2018-06-21T11:12:27.354Z,20064.00
2018-06-21T11:13:19.166Z,21152.00
2018-06-21T11:14:28.023Z,24064.00
2018-06-21T11:15:28.197Z,28608.00
2018-06-21T11:16:28.625Z,33280.00
2018-06-21T11:17:28.949Z,40832.00
2018-06-21T11:18:20.756Z,35744.00
2018-06-21T11:19:29.609Z,32224.00
2018-06-21T11:20:21.318Z,38592.00
2018-06-21T11:21:30.214Z,43552.00
2018-06-21T11:22:30.586Z,38272.00
2018-06-21T11:23:31.006Z,45856.00
2018-06-21T11:24:22.745Z,50976.00
2018-06-21T11:25:32.618Z,60512.00
2018-06-21T11:26:31.876Z,80640.00
2018-06-21T11:27:23.647Z,61312.00
2018-06-21T11:28:32.459Z,52768.00
2018-06-21T11:29:24.260Z,35296.00
2018-06-21T11:30:33.155Z,30144.00
2018-06-21T11:31:24.835Z,36352.00
2018-06-21T11:32:25.078Z,37728.00
2018-06-21T11:33:25.325Z,37504.00
2018-06-21T11:34:25.553Z,33824.00
2018-06-21T11:35:25.812Z,40768.00
2018-06-21T11:36:26.698Z,38560.00
2018-06-21T11:37:26.371Z,28064.00
2018-06-21T11:38:26.637Z,37504.00
2018-06-21T11:39:26.877Z,28448.00
2018-06-21T11:40:27.124Z,34112.00
2018-06-21T11:41:27.368Z,30080.00
2018-06-21T11:42:27.603Z,31520.00
2018-06-21T11:43:27.852Z,27104.00
2018-06-21T11:44:28.104Z,29664.00
2018-06-21T11:45:28.367Z,44064.00
2018-06-21T11:46:28.631Z,52512.00
2018-06-21T11:47:28.850Z,76992.00
2018-06-21T11:48:29.092Z,63552.00
2018-06-21T11:49:29.338Z,63648.00
2018-06-21T11:50:29.587Z,75808.00
2018-06-21T11:51:29.828Z,81856.00
2018-06-21T11:52:30.070Z,88992.00
2018-06-21T11:53:30.311Z,79552.00
2018-06-21T11:54:30.568Z,99808.00
2018-06-21T11:55:30.828Z,97312.00
2018-06-21T11:56:31.166Z,93888.00
2018-06-21T11:57:31.339Z,92256.00
2018-06-21T11:58:31.584Z,89216.00
2018-06-21T11:59:31.840Z,89536.00
2018-06-21T12:00:32.085Z,92864.00
2018-06-21T12:01:32.335Z,86624.00
2018-06-21T12:02:32.577Z,87520.00
2018-06-21T12:03:32.843Z,50560.00
2018-06-21T12:04:33.117Z,93312.00
2018-06-21T12:05:33.357Z,58304.00
2018-06-21T12:06:33.605Z,89440.00
2018-06-21T12:07:33.853Z,67840.00
2018-06-21T12:08:34.107Z,80928.00
2018-06-21T12:09:34.345Z,23808.00
2018-06-21T12:10:34.613Z,24896.00
2018-06-21T12:11:34.860Z,32768.00
2018-06-21T12:12:44.736Z,28256.00
2018-06-21T12:13:35.374Z,28512.00
2018-06-21T12:14:35.683Z,26496.00
2018-06-21T12:15:35.836Z,30496.00
2018-06-21T12:16:36.113Z,94336.00
2018-06-21T12:17:36.344Z,98400.00